Borlange Dala Airport

About
Name: Borlange Dala Airport
Identifier:  BLE/ESSD
Local Time:  25. Aug 16:10 CEST
Location
Borlange
  Sweden

Statistics
Flights per Day:
0 flights
Distance: 2,819km (1,751mi)
Flights delayed:
0% (0 flights per day delayed)
Delay Average: 29 minutes
Current Weather
  13kt (24km/h / 14mph) from 230°
  9km (6 mi.)
 METAR ESSD 251350Z AUTO 23013KT 9999 FEW220/// 24/14 Q1023

Current Flights

Arrivals
Number Arrival From Airline
 DK1413 14:55 +12  Rhodes  Thomas Cook Airlines Scandinavia

Current Delays

Departures
N/A
Arrivals
N/A

Destinations

Top Destinations
Airport Flights
per week
Seats
per week
  Rhodes (RHO) 0 148 0 21
  Oslo (TRF) 0 49 0 7

Airlines & Planes

Top Airlines
Airline Flights
per Day
Seats
per Day
  Thomas Cook Airlines Scandinavia 0 28
Top Plane Types
Model Flights Seats
Airbus A321 0.1/day 28/day 28.266666666666666